sensor_id;sensor_type;location;lat;lon;timestamp;P1;durP1;ratioP1;P2;durP2;ratioP2
50126;SDS011;36024;47.974;16.398;2022-10-31T00:00:46;11.17;;;10.00;;
50126;SDS011;36024;47.974;16.398;2022-10-31T00:03:13;11.47;;;9.53;;
50126;SDS011;36024;47.974;16.398;2022-10-31T00:05:41;9.70;;;8.70;;
50126;SDS011;36024;47.974;16.398;2022-10-31T00:08:09;9.13;;;8.23;;
50126;SDS011;36024;47.974;16.398;2022-10-31T00:10:39;9.97;;;8.50;;
50126;SDS011;36024;47.974;16.398;2022-10-31T00:13:06;8.73;;;7.87;;
50126;SDS011;36024;47.974;16.398;2022-10-31T00:15:34;11.33;;;9.73;;
50126;SDS011;36024;47.974;16.398;2022-10-31T00:18:02;12.67;;;10.57;;
50126;SDS011;36024;47.974;16.398;2022-10-31T00:20:29;14.60;;;10.77;;
50126;SDS011;36024;47.974;16.398;2022-10-31T00:22:59;11.60;;;10.50;;
50126;SDS011;36024;47.974;16.398;2022-10-31T00:25:27;12.60;;;11.30;;
50126;SDS011;36024;47.974;16.398;2022-10-31T00:27:54;12.30;;;11.10;;
50126;SDS011;36024;47.974;16.398;2022-10-31T00:30:22;12.33;;;11.13;;
50126;SDS011;36024;47.974;16.398;2022-10-31T00:32:48;12.13;;;10.97;;
50126;SDS011;36024;47.974;16.398;2022-10-31T00:35:16;12.20;;;11.00;;
50126;SDS011;36024;47.974;16.398;2022-10-31T00:37:43;12.40;;;11.07;;
50126;SDS011;36024;47.974;16.398;2022-10-31T00:40:10;12.37;;;11.07;;
50126;SDS011;36024;47.974;16.398;2022-10-31T00:42:38;12.20;;;10.90;;
50126;SDS011;36024;47.974;16.398;2022-10-31T00:45:06;11.73;;;10.50;;
50126;SDS011;36024;47.974;16.398;2022-10-31T00:47:32;12.30;;;10.83;;
50126;SDS011;36024;47.974;16.398;2022-10-31T00:49:59;11.67;;;10.57;;
50126;SDS011;36024;47.974;16.398;2022-10-31T00:52:26;11.33;;;10.13;;
50126;SDS011;36024;47.974;16.398;2022-10-31T00:54:52;10.70;;;9.70;;
50126;SDS011;36024;47.974;16.398;2022-10-31T00:57:19;10.27;;;9.10;;
50126;SDS011;36024;47.974;16.398;2022-10-31T00:59:45;10.40;;;9.17;;
50126;SDS011;36024;47.974;16.398;2022-10-31T01:02:12;10.17;;;9.27;;
50126;SDS011;36024;47.974;16.398;2022-10-31T01:04:39;10.57;;;9.57;;
50126;SDS011;36024;47.974;16.398;2022-10-31T01:07:06;10.40;;;9.30;;
50126;SDS011;36024;47.974;16.398;2022-10-31T01:09:33;11.07;;;9.97;;
50126;SDS011;36024;47.974;16.398;2022-10-31T01:11:59;10.50;;;9.50;;
50126;SDS011;36024;47.974;16.398;2022-10-31T01:14:26;10.80;;;9.27;;
50126;SDS011;36024;47.974;16.398;2022-10-31T01:16:56;10.50;;;9.40;;
50126;SDS011;36024;47.974;16.398;2022-10-31T01:19:22;10.97;;;9.77;;
50126;SDS011;36024;47.974;16.398;2022-10-31T01:21:49;10.80;;;9.73;;
50126;SDS011;36024;47.974;16.398;2022-10-31T01:24:15;10.57;;;9.57;;
50126;SDS011;36024;47.974;16.398;2022-10-31T01:26:42;10.77;;;9.67;;
50126;SDS011;36024;47.974;16.398;2022-10-31T01:29:08;10.33;;;9.27;;
50126;SDS011;36024;47.974;16.398;2022-10-31T01:31:36;11.47;;;10.27;;
50126;SDS011;36024;47.974;16.398;2022-10-31T01:34:03;10.97;;;9.90;;
50126;SDS011;36024;47.974;16.398;2022-10-31T01:36:32;10.70;;;9.60;;
50126;SDS011;36024;47.974;16.398;2022-10-31T01:39:01;10.60;;;9.47;;
50126;SDS011;36024;47.974;16.398;2022-10-31T01:41:37;10.70;;;9.17;;
50126;SDS011;36024;47.974;16.398;2022-10-31T01:51:47;10.90;;;9.80;;
50126;SDS011;36024;47.974;16.398;2022-10-31T01:54:15;10.27;;;9.27;;
50126;SDS011;36024;47.974;16.398;2022-10-31T01:56:45;11.57;;;10.33;;
50126;SDS011;36024;47.974;16.398;2022-10-31T01:59:18;15.70;;;10.43;;
50126;SDS011;36024;47.974;16.398;2022-10-31T02:01:46;11.33;;;10.23;;
50126;SDS011;36024;47.974;16.398;2022-10-31T02:04:14;11.20;;;9.80;;
50126;SDS011;36024;47.974;16.398;2022-10-31T02:06:43;10.97;;;9.77;;
50126;SDS011;36024;47.974;16.398;2022-10-31T02:09:13;10.67;;;9.57;;
50126;SDS011;36024;47.974;16.398;2022-10-31T02:11:40;10.37;;;9.37;;
50126;SDS011;36024;47.974;16.398;2022-10-31T02:14:10;10.00;;;8.77;;
50126;SDS011;36024;47.974;16.398;2022-10-31T02:16:37;9.57;;;8.67;;
50126;SDS011;36024;47.974;16.398;2022-10-31T02:19:04;10.07;;;9.07;;
50126;SDS011;36024;47.974;16.398;2022-10-31T02:21:47;10.63;;;9.53;;
50126;SDS011;36024;47.974;16.398;2022-10-31T02:27:46;9.40;;;8.43;;
50126;SDS011;36024;47.974;16.398;2022-10-31T02:30:40;9.63;;;8.53;;
50126;SDS011;36024;47.974;16.398;2022-10-31T02:33:30;10.33;;;8.33;;
50126;SDS011;36024;47.974;16.398;2022-10-31T02:38:46;10.07;;;8.87;;
50126;SDS011;36024;47.974;16.398;2022-10-31T02:41:39;10.03;;;8.93;;
50126;SDS011;36024;47.974;16.398;2022-10-31T02:46:52;9.90;;;8.13;;
50126;SDS011;36024;47.974;16.398;2022-10-31T02:49:24;9.33;;;8.33;;
50126;SDS011;36024;47.974;16.398;2022-10-31T02:51:54;8.97;;;8.07;;
50126;SDS011;36024;47.974;16.398;2022-10-31T02:54:22;8.90;;;8.00;;
50126;SDS011;36024;47.974;16.398;2022-10-31T02:56:54;9.50;;;8.50;;
50126;SDS011;36024;47.974;16.398;2022-10-31T02:59:23;9.57;;;8.57;;
50126;SDS011;36024;47.974;16.398;2022-10-31T03:01:54;9.27;;;8.37;;
50126;SDS011;36024;47.974;16.398;2022-10-31T03:07:17;8.30;;;7.50;;
50126;SDS011;36024;47.974;16.398;2022-10-31T03:15:19;9.20;;;8.27;;
50126;SDS011;36024;47.974;16.398;2022-10-31T03:17:57;9.40;;;8.37;;
50126;SDS011;36024;47.974;16.398;2022-10-31T03:20:39;9.30;;;8.23;;
50126;SDS011;36024;47.974;16.398;2022-10-31T03:23:09;9.90;;;8.90;;
50126;SDS011;36024;47.974;16.398;2022-10-31T03:25:40;9.93;;;8.93;;
50126;SDS011;36024;47.974;16.398;2022-10-31T03:28:08;10.10;;;8.90;;
50126;SDS011;36024;47.974;16.398;2022-10-31T03:30:38;10.80;;;9.03;;
50126;SDS011;36024;47.974;16.398;2022-10-31T03:33:09;10.07;;;9.07;;
50126;SDS011;36024;47.974;16.398;2022-10-31T03:35:39;9.87;;;8.43;;
50126;SDS011;36024;47.974;16.398;2022-10-31T03:38:08;9.43;;;8.50;;
50126;SDS011;36024;47.974;16.398;2022-10-31T03:40:35;9.57;;;8.57;;
50126;SDS011;36024;47.974;16.398;2022-10-31T03:43:05;10.40;;;8.77;;
50126;SDS011;36024;47.974;16.398;2022-10-31T03:45:36;10.27;;;8.70;;
50126;SDS011;36024;47.974;16.398;2022-10-31T03:48:07;10.63;;;8.70;;
50126;SDS011;36024;47.974;16.398;2022-10-31T03:50:37;9.20;;;8.30;;
50126;SDS011;36024;47.974;16.398;2022-10-31T03:53:11;9.87;;;8.87;;
50126;SDS011;36024;47.974;16.398;2022-10-31T03:55:49;9.20;;;8.30;;
50126;SDS011;36024;47.974;16.398;2022-10-31T03:58:20;9.40;;;8.37;;
50126;SDS011;36024;47.974;16.398;2022-10-31T04:00:51;9.60;;;8.60;;
50126;SDS011;36024;47.974;16.398;2022-10-31T04:03:30;10.47;;;9.23;;
50126;SDS011;36024;47.974;16.398;2022-10-31T04:06:03;10.20;;;9.20;;
50126;SDS011;36024;47.974;16.398;2022-10-31T04:08:40;10.73;;;9.53;;
50126;SDS011;36024;47.974;16.398;2022-10-31T04:11:13;9.93;;;8.43;;
50126;SDS011;36024;47.974;16.398;2022-10-31T04:13:45;10.43;;;9.03;;
50126;SDS011;36024;47.974;16.398;2022-10-31T04:16:18;9.80;;;8.80;;
50126;SDS011;36024;47.974;16.398;2022-10-31T04:18:47;11.60;;;9.30;;
50126;SDS011;36024;47.974;16.398;2022-10-31T04:21:15;10.53;;;8.83;;
50126;SDS011;36024;47.974;16.398;2022-10-31T04:23:42;10.23;;;8.97;;
50126;SDS011;36024;47.974;16.398;2022-10-31T04:26:17;10.20;;;9.10;;
50126;SDS011;36024;47.974;16.398;2022-10-31T04:28:43;10.07;;;8.93;;
50126;SDS011;36024;47.974;16.398;2022-10-31T04:31:11;11.83;;;9.33;;
50126;SDS011;36024;47.974;16.398;2022-10-31T04:33:39;9.53;;;8.53;;
50126;SDS011;36024;47.974;16.398;2022-10-31T04:36:06;9.30;;;8.10;;
50126;SDS011;36024;47.974;16.398;2022-10-31T04:38:33;9.30;;;8.43;;
50126;SDS011;36024;47.974;16.398;2022-10-31T04:41:03;9.07;;;7.87;;
50126;SDS011;36024;47.974;16.398;2022-10-31T04:43:46;8.80;;;7.97;;
50126;SDS011;36024;47.974;16.398;2022-10-31T04:46:13;8.77;;;7.90;;
50126;SDS011;36024;47.974;16.398;2022-10-31T04:48:39;6.70;;;6.10;;
50126;SDS011;36024;47.974;16.398;2022-10-31T04:51:06;6.20;;;5.60;;
50126;SDS011;36024;47.974;16.398;2022-10-31T04:53:33;6.00;;;5.07;;
50126;SDS011;36024;47.974;16.398;2022-10-31T04:56:31;5.33;;;4.53;;
50126;SDS011;36024;47.974;16.398;2022-10-31T04:59:01;5.27;;;4.43;;
50126;SDS011;36024;47.974;16.398;2022-10-31T05:01:38;5.87;;;4.80;;
50126;SDS011;36024;47.974;16.398;2022-10-31T05:04:05;4.87;;;4.47;;
50126;SDS011;36024;47.974;16.398;2022-10-31T05:06:31;6.90;;;4.43;;
50126;SDS011;36024;47.974;16.398;2022-10-31T05:08:58;5.37;;;4.83;;
50126;SDS011;36024;47.974;16.398;2022-10-31T05:11:25;5.63;;;5.10;;
50126;SDS011;36024;47.974;16.398;2022-10-31T05:13:54;5.43;;;4.83;;
50126;SDS011;36024;47.974;16.398;2022-10-31T05:16:39;4.80;;;4.30;;
50126;SDS011;36024;47.974;16.398;2022-10-31T05:19:29;6.20;;;5.37;;
50126;SDS011;36024;47.974;16.398;2022-10-31T05:22:30;5.67;;;4.90;;
50126;SDS011;36024;47.974;16.398;2022-10-31T05:24:57;5.40;;;4.90;;
50126;SDS011;36024;47.974;16.398;2022-10-31T05:27:24;5.40;;;4.90;;
50126;SDS011;36024;47.974;16.398;2022-10-31T05:29:50;6.07;;;5.03;;
50126;SDS011;36024;47.974;16.398;2022-10-31T05:32:17;6.17;;;4.83;;
50126;SDS011;36024;47.974;16.398;2022-10-31T05:35:04;6.47;;;4.97;;
50126;SDS011;36024;47.974;16.398;2022-10-31T05:37:50;5.90;;;5.20;;
50126;SDS011;36024;47.974;16.398;2022-10-31T05:40:17;6.17;;;5.10;;
50126;SDS011;36024;47.974;16.398;2022-10-31T05:42:44;6.03;;;5.43;;
50126;SDS011;36024;47.974;16.398;2022-10-31T05:45:12;7.20;;;6.00;;
50126;SDS011;36024;47.974;16.398;2022-10-31T05:47:53;6.10;;;5.50;;
50126;SDS011;36024;47.974;16.398;2022-10-31T05:50:40;6.50;;;5.70;;
50126;SDS011;36024;47.974;16.398;2022-10-31T05:53:09;6.33;;;5.73;;
50126;SDS011;36024;47.974;16.398;2022-10-31T05:55:37;7.03;;;5.70;;
50126;SDS011;36024;47.974;16.398;2022-10-31T05:58:10;10.07;;;5.93;;
50126;SDS011;36024;47.974;16.398;2022-10-31T06:00:40;9.03;;;5.97;;
50126;SDS011;36024;47.974;16.398;2022-10-31T06:03:09;7.53;;;5.73;;
50126;SDS011;36024;47.974;16.398;2022-10-31T06:05:41;7.60;;;5.90;;
50126;SDS011;36024;47.974;16.398;2022-10-31T06:08:07;6.33;;;5.73;;
50126;SDS011;36024;47.974;16.398;2022-10-31T06:10:34;6.73;;;6.13;;
50126;SDS011;36024;47.974;16.398;2022-10-31T06:13:01;6.60;;;5.90;;
50126;SDS011;36024;47.974;16.398;2022-10-31T06:15:33;7.47;;;5.67;;
50126;SDS011;36024;47.974;16.398;2022-10-31T06:18:03;7.43;;;6.20;;
50126;SDS011;36024;47.974;16.398;2022-10-31T06:20:43;8.07;;;5.70;;
50126;SDS011;36024;47.974;16.398;2022-10-31T06:23:10;6.20;;;5.60;;
50126;SDS011;36024;47.974;16.398;2022-10-31T06:25:38;6.40;;;5.57;;
50126;SDS011;36024;47.974;16.398;2022-10-31T06:28:05;7.30;;;6.00;;
50126;SDS011;36024;47.974;16.398;2022-10-31T06:30:45;6.10;;;5.50;;
50126;SDS011;36024;47.974;16.398;2022-10-31T06:33:12;9.17;;;5.37;;
50126;SDS011;36024;47.974;16.398;2022-10-31T06:35:46;6.37;;;5.73;;
50126;SDS011;36024;47.974;16.398;2022-10-31T06:38:14;6.17;;;5.57;;
50126;SDS011;36024;47.974;16.398;2022-10-31T06:40:41;8.50;;;5.43;;
50126;SDS011;36024;47.974;16.398;2022-10-31T06:43:34;6.00;;;5.40;;
50126;SDS011;36024;47.974;16.398;2022-10-31T06:46:23;7.00;;;6.30;;
50126;SDS011;36024;47.974;16.398;2022-10-31T06:49:03;5.77;;;5.13;;
50126;SDS011;36024;47.974;16.398;2022-10-31T06:51:41;6.20;;;5.40;;
50126;SDS011;36024;47.974;16.398;2022-10-31T06:54:07;5.53;;;5.00;;
50126;SDS011;36024;47.974;16.398;2022-10-31T06:56:35;5.93;;;5.43;;
50126;SDS011;36024;47.974;16.398;2022-10-31T06:59:02;6.40;;;5.80;;
50126;SDS011;36024;47.974;16.398;2022-10-31T07:01:49;6.10;;;5.50;;
50126;SDS011;36024;47.974;16.398;2022-10-31T07:04:17;7.67;;;5.40;;
50126;SDS011;36024;47.974;16.398;2022-10-31T07:06:43;6.30;;;5.50;;
50126;SDS011;36024;47.974;16.398;2022-10-31T07:09:17;6.00;;;5.40;;
50126;SDS011;36024;47.974;16.398;2022-10-31T07:11:44;5.00;;;4.50;;
50126;SDS011;36024;47.974;16.398;2022-10-31T07:14:12;5.20;;;4.70;;
50126;SDS011;36024;47.974;16.398;2022-10-31T07:16:38;4.73;;;4.33;;
50126;SDS011;36024;47.974;16.398;2022-10-31T07:19:05;4.70;;;4.30;;
50126;SDS011;36024;47.974;16.398;2022-10-31T07:21:32;5.10;;;4.40;;
50126;SDS011;36024;47.974;16.398;2022-10-31T07:23:59;5.73;;;4.77;;
50126;SDS011;36024;47.974;16.398;2022-10-31T07:26:55;5.50;;;5.00;;
50126;SDS011;36024;47.974;16.398;2022-10-31T07:29:23;6.73;;;5.20;;
50126;SDS011;36024;47.974;16.398;2022-10-31T07:31:50;4.90;;;4.50;;
50126;SDS011;36024;47.974;16.398;2022-10-31T07:34:23;5.43;;;4.57;;
50126;SDS011;36024;47.974;16.398;2022-10-31T07:37:15;5.20;;;4.70;;
50126;SDS011;36024;47.974;16.398;2022-10-31T07:39:43;4.47;;;4.07;;
50126;SDS011;36024;47.974;16.398;2022-10-31T07:42:10;6.70;;;5.10;;
50126;SDS011;36024;47.974;16.398;2022-10-31T07:44:41;5.40;;;4.90;;
50126;SDS011;36024;47.974;16.398;2022-10-31T07:47:27;5.37;;;4.87;;
50126;SDS011;36024;47.974;16.398;2022-10-31T07:50:13;5.20;;;4.70;;
50126;SDS011;36024;47.974;16.398;2022-10-31T07:53:08;5.27;;;4.83;;
50126;SDS011;36024;47.974;16.398;2022-10-31T07:55:56;5.77;;;5.27;;
50126;SDS011;36024;47.974;16.398;2022-10-31T07:58:27;6.57;;;5.00;;
50126;SDS011;36024;47.974;16.398;2022-10-31T08:00:57;5.87;;;5.37;;
50126;SDS011;36024;47.974;16.398;2022-10-31T08:03:32;5.93;;;5.43;;
50126;SDS011;36024;47.974;16.398;2022-10-31T08:06:18;5.50;;;4.80;;
50126;SDS011;36024;47.974;16.398;2022-10-31T08:08:59;4.77;;;4.27;;
50126;SDS011;36024;47.974;16.398;2022-10-31T08:11:26;5.90;;;4.53;;
50126;SDS011;36024;47.974;16.398;2022-10-31T08:13:53;5.60;;;5.10;;
50126;SDS011;36024;47.974;16.398;2022-10-31T08:16:20;4.93;;;4.50;;
50126;SDS011;36024;47.974;16.398;2022-10-31T08:18:59;5.60;;;5.10;;
50126;SDS011;36024;47.974;16.398;2022-10-31T08:21:28;5.50;;;4.87;;
50126;SDS011;36024;47.974;16.398;2022-10-31T08:23:56;5.57;;;5.00;;
50126;SDS011;36024;47.974;16.398;2022-10-31T08:26:23;5.23;;;4.73;;
50126;SDS011;36024;47.974;16.398;2022-10-31T08:28:52;5.80;;;4.87;;
50126;SDS011;36024;47.974;16.398;2022-10-31T08:31:21;5.20;;;4.50;;
50126;SDS011;36024;47.974;16.398;2022-10-31T08:33:49;5.17;;;4.73;;
50126;SDS011;36024;47.974;16.398;2022-10-31T08:36:15;5.23;;;4.73;;
50126;SDS011;36024;47.974;16.398;2022-10-31T08:38:56;4.97;;;4.53;;
50126;SDS011;36024;47.974;16.398;2022-10-31T08:41:28;4.93;;;4.47;;
50126;SDS011;36024;47.974;16.398;2022-10-31T08:43:56;4.83;;;4.43;;
50126;SDS011;36024;47.974;16.398;2022-10-31T08:46:23;5.00;;;4.60;;
50126;SDS011;36024;47.974;16.398;2022-10-31T08:48:50;5.13;;;4.60;;
50126;SDS011;36024;47.974;16.398;2022-10-31T08:51:18;4.70;;;4.30;;
50126;SDS011;36024;47.974;16.398;2022-10-31T08:53:47;4.73;;;4.33;;
50126;SDS011;36024;47.974;16.398;2022-10-31T08:56:33;4.70;;;4.30;;
50126;SDS011;36024;47.974;16.398;2022-10-31T08:59:03;5.10;;;4.70;;
50126;SDS011;36024;47.974;16.398;2022-10-31T09:01:52;5.03;;;4.63;;
50126;SDS011;36024;47.974;16.398;2022-10-31T09:04:19;5.17;;;4.60;;
50126;SDS011;36024;47.974;16.398;2022-10-31T09:06:46;5.07;;;4.67;;
50126;SDS011;36024;47.974;16.398;2022-10-31T09:09:32;5.07;;;4.53;;
50126;SDS011;36024;47.974;16.398;2022-10-31T09:11:59;5.67;;;4.53;;
50126;SDS011;36024;47.974;16.398;2022-10-31T09:14:45;4.83;;;4.43;;
50126;SDS011;36024;47.974;16.398;2022-10-31T09:17:30;5.23;;;4.80;;
50126;SDS011;36024;47.974;16.398;2022-10-31T09:20:15;5.40;;;4.90;;
50126;SDS011;36024;47.974;16.398;2022-10-31T09:22:42;5.00;;;4.60;;
50126;SDS011;36024;47.974;16.398;2022-10-31T09:25:09;5.83;;;5.23;;
50126;SDS011;36024;47.974;16.398;2022-10-31T09:27:37;5.30;;;4.90;;
50126;SDS011;36024;47.974;16.398;2022-10-31T09:30:05;5.40;;;4.97;;
50126;SDS011;36024;47.974;16.398;2022-10-31T09:32:33;5.90;;;5.07;;
50126;SDS011;36024;47.974;16.398;2022-10-31T09:34:59;5.97;;;5.47;;
50126;SDS011;36024;47.974;16.398;2022-10-31T09:37:27;5.80;;;5.30;;
50126;SDS011;36024;47.974;16.398;2022-10-31T09:39:53;5.67;;;5.17;;
50126;SDS011;36024;47.974;16.398;2022-10-31T09:48:37;5.93;;;5.37;;
50126;SDS011;36024;47.974;16.398;2022-10-31T09:51:40;6.10;;;5.60;;
50126;SDS011;36024;47.974;16.398;2022-10-31T09:54:29;6.37;;;5.50;;
50126;SDS011;36024;47.974;16.398;2022-10-31T09:57:00;6.90;;;6.20;;
50126;SDS011;36024;47.974;16.398;2022-10-31T09:59:34;6.57;;;6.00;;
50126;SDS011;36024;47.974;16.398;2022-10-31T10:02:14;6.50;;;5.90;;
50126;SDS011;36024;47.974;16.398;2022-10-31T10:04:56;6.70;;;6.10;;
50126;SDS011;36024;47.974;16.398;2022-10-31T10:07:30;8.03;;;7.23;;
50126;SDS011;36024;47.974;16.398;2022-10-31T10:10:17;7.87;;;7.17;;
50126;SDS011;36024;47.974;16.398;2022-10-31T10:15:54;8.23;;;7.53;;
50126;SDS011;36024;47.974;16.398;2022-10-31T10:21:23;8.90;;;8.10;;
50126;SDS011;36024;47.974;16.398;2022-10-31T10:24:17;8.77;;;7.97;;
50126;SDS011;36024;47.974;16.398;2022-10-31T10:35:19;10.30;;;9.20;;
50126;SDS011;36024;47.974;16.398;2022-10-31T10:37:50;10.60;;;9.60;;
50126;SDS011;36024;47.974;16.398;2022-10-31T10:40:20;9.80;;;8.90;;
50126;SDS011;36024;47.974;16.398;2022-10-31T10:45:41;8.87;;;8.07;;
50126;SDS011;36024;47.974;16.398;2022-10-31T10:51:19;13.53;;;12.27;;
50126;SDS011;36024;47.974;16.398;2022-10-31T10:54:13;15.80;;;14.30;;
50126;SDS011;36024;47.974;16.398;2022-10-31T10:59:27;10.80;;;9.90;;
50126;SDS011;36024;47.974;16.398;2022-10-31T11:01:55;11.77;;;10.67;;
50126;SDS011;36024;47.974;16.398;2022-10-31T11:04:40;10.93;;;9.93;;
50126;SDS011;36024;47.974;16.398;2022-10-31T11:07:08;11.70;;;10.63;;
50126;SDS011;36024;47.974;16.398;2022-10-31T11:09:38;11.57;;;10.37;;
50126;SDS011;36024;47.974;16.398;2022-10-31T11:12:08;11.73;;;10.60;;
50126;SDS011;36024;47.974;16.398;2022-10-31T11:14:45;12.13;;;10.93;;
50126;SDS011;36024;47.974;16.398;2022-10-31T11:19:59;11.53;;;10.53;;
50126;SDS011;36024;47.974;16.398;2022-10-31T11:22:33;11.63;;;10.43;;
50126;SDS011;36024;47.974;16.398;2022-10-31T11:25:00;11.07;;;10.07;;
50126;SDS011;36024;47.974;16.398;2022-10-31T11:27:29;11.30;;;10.30;;
50126;SDS011;36024;47.974;16.398;2022-10-31T11:30:05;11.90;;;10.80;;
50126;SDS011;36024;47.974;16.398;2022-10-31T11:32:39;11.47;;;10.37;;
50126;SDS011;36024;47.974;16.398;2022-10-31T11:35:10;11.53;;;10.43;;
50126;SDS011;36024;47.974;16.398;2022-10-31T11:37:42;11.43;;;10.43;;
50126;SDS011;36024;47.974;16.398;2022-10-31T11:42:45;11.73;;;10.63;;
50126;SDS011;36024;47.974;16.398;2022-10-31T11:47:54;12.27;;;11.13;;
50126;SDS011;36024;47.974;16.398;2022-10-31T11:50:34;12.77;;;11.57;;
50126;SDS011;36024;47.974;16.398;2022-10-31T11:53:03;13.00;;;11.70;;
50126;SDS011;36024;47.974;16.398;2022-10-31T11:55:34;13.60;;;12.30;;
50126;SDS011;36024;47.974;16.398;2022-10-31T11:58:02;12.97;;;11.77;;
50126;SDS011;36024;47.974;16.398;2022-10-31T12:00:35;13.50;;;12.20;;
50126;SDS011;36024;47.974;16.398;2022-10-31T12:03:53;12.63;;;11.53;;
50126;SDS011;36024;47.974;16.398;2022-10-31T12:05:58;14.33;;;12.83;;
50126;SDS011;36024;47.974;16.398;2022-10-31T12:08:30;16.83;;;15.13;;
50126;SDS011;36024;47.974;16.398;2022-10-31T12:14:01;14.40;;;13.10;;
50126;SDS011;36024;47.974;16.398;2022-10-31T12:19:29;15.03;;;13.60;;
50126;SDS011;36024;47.974;16.398;2022-10-31T12:52:42;15.73;;;14.23;;
50126;SDS011;36024;47.974;16.398;2022-10-31T12:55:53;16.10;;;14.47;;
50126;SDS011;36024;47.974;16.398;2022-10-31T12:58:36;14.90;;;13.40;;
50126;SDS011;36024;47.974;16.398;2022-10-31T13:01:18;16.00;;;13.97;;
50126;SDS011;36024;47.974;16.398;2022-10-31T13:07:14;16.80;;;15.03;;
50126;SDS011;36024;47.974;16.398;2022-10-31T13:09:50;17.53;;;15.83;;
50126;SDS011;36024;47.974;16.398;2022-10-31T13:12:20;16.40;;;14.70;;
50126;SDS011;36024;47.974;16.398;2022-10-31T13:14:50;18.20;;;15.60;;
50126;SDS011;36024;47.974;16.398;2022-10-31T13:17:21;15.80;;;14.10;;
50126;SDS011;36024;47.974;16.398;2022-10-31T13:20:02;16.67;;;14.03;;
50126;SDS011;36024;47.974;16.398;2022-10-31T13:22:38;15.80;;;14.20;;
50126;SDS011;36024;47.974;16.398;2022-10-31T13:30:22;16.70;;;15.00;;
50126;SDS011;36024;47.974;16.398;2022-10-31T13:41:06;15.20;;;13.70;;
50126;SDS011;36024;47.974;16.398;2022-10-31T13:46:35;21.07;;;17.63;;
50126;SDS011;36024;47.974;16.398;2022-10-31T13:49:19;25.90;;;23.20;;
50126;SDS011;36024;47.974;16.398;2022-10-31T13:54:36;17.93;;;16.13;;
50126;SDS011;36024;47.974;16.398;2022-10-31T13:57:47;16.47;;;14.73;;
50126;SDS011;36024;47.974;16.398;2022-10-31T14:00:02;15.80;;;14.03;;
50126;SDS011;36024;47.974;16.398;2022-10-31T14:02:49;16.63;;;14.87;;
50126;SDS011;36024;47.974;16.398;2022-10-31T14:05:25;21.17;;;16.13;;
50126;SDS011;36024;47.974;16.398;2022-10-31T14:08:00;17.10;;;15.30;;
50126;SDS011;36024;47.974;16.398;2022-10-31T14:13:03;16.50;;;14.80;;
50126;SDS011;36024;47.974;16.398;2022-10-31T14:15:55;15.73;;;14.03;;
50126;SDS011;36024;47.974;16.398;2022-10-31T14:18:24;15.13;;;13.63;;
50126;SDS011;36024;47.974;16.398;2022-10-31T14:20:55;15.27;;;13.77;;
50126;SDS011;36024;47.974;16.398;2022-10-31T14:23:31;15.23;;;13.77;;
50126;SDS011;36024;47.974;16.398;2022-10-31T14:28:42;14.57;;;12.97;;
50126;SDS011;36024;47.974;16.398;2022-10-31T14:39:52;19.10;;;17.00;;
50126;SDS011;36024;47.974;16.398;2022-10-31T14:51:17;17.20;;;15.40;;
50126;SDS011;36024;47.974;16.398;2022-10-31T14:53:47;18.20;;;16.23;;
50126;SDS011;36024;47.974;16.398;2022-10-31T14:56:23;18.60;;;15.87;;
50126;SDS011;36024;47.974;16.398;2022-10-31T14:58:52;18.70;;;16.60;;
50126;SDS011;36024;47.974;16.398;2022-10-31T15:01:28;21.20;;;17.07;;
50126;SDS011;36024;47.974;16.398;2022-10-31T15:04:12;26.53;;;18.60;;
50126;SDS011;36024;47.974;16.398;2022-10-31T15:09:33;25.50;;;18.03;;
50126;SDS011;36024;47.974;16.398;2022-10-31T15:14:54;26.43;;;18.47;;
50126;SDS011;36024;47.974;16.398;2022-10-31T15:17:22;23.90;;;19.77;;
50126;SDS011;36024;47.974;16.398;2022-10-31T15:19:50;23.83;;;18.77;;
50126;SDS011;36024;47.974;16.398;2022-10-31T15:22:18;28.83;;;22.77;;
50126;SDS011;36024;47.974;16.398;2022-10-31T15:24:47;19.63;;;16.27;;
50126;SDS011;36024;47.974;16.398;2022-10-31T15:27:15;21.27;;;18.27;;
50126;SDS011;36024;47.974;16.398;2022-10-31T15:29:50;22.97;;;18.13;;
50126;SDS011;36024;47.974;16.398;2022-10-31T15:32:24;18.77;;;16.17;;
50126;SDS011;36024;47.974;16.398;2022-10-31T15:34:55;19.00;;;15.80;;
50126;SDS011;36024;47.974;16.398;2022-10-31T15:37:23;20.40;;;16.50;;
50126;SDS011;36024;47.974;16.398;2022-10-31T15:39:51;22.57;;;17.23;;
50126;SDS011;36024;47.974;16.398;2022-10-31T15:42:19;23.37;;;20.07;;
50126;SDS011;36024;47.974;16.398;2022-10-31T15:44:52;24.67;;;20.30;;
50126;SDS011;36024;47.974;16.398;2022-10-31T15:47:31;23.83;;;18.17;;
50126;SDS011;36024;47.974;16.398;2022-10-31T15:49:59;23.30;;;18.77;;
50126;SDS011;36024;47.974;16.398;2022-10-31T15:52:40;21.93;;;18.33;;
50126;SDS011;36024;47.974;16.398;2022-10-31T15:57:45;32.27;;;25.60;;
50126;SDS011;36024;47.974;16.398;2022-10-31T16:00:27;42.13;;;33.87;;
50126;SDS011;36024;47.974;16.398;2022-10-31T16:03:19;47.30;;;40.53;;
50126;SDS011;36024;47.974;16.398;2022-10-31T16:05:51;27.67;;;24.27;;
50126;SDS011;36024;47.974;16.398;2022-10-31T16:13:33;26.60;;;23.70;;
50126;SDS011;36024;47.974;16.398;2022-10-31T16:16:03;24.47;;;20.20;;
50126;SDS011;36024;47.974;16.398;2022-10-31T16:18:51;21.47;;;17.37;;
50126;SDS011;36024;47.974;16.398;2022-10-31T16:21:30;25.30;;;18.37;;
50126;SDS011;36024;47.974;16.398;2022-10-31T16:24:00;20.07;;;17.00;;
50126;SDS011;36024;47.974;16.398;2022-10-31T16:26:31;21.33;;;17.60;;
50126;SDS011;36024;47.974;16.398;2022-10-31T16:28:58;21.63;;;17.53;;
50126;SDS011;36024;47.974;16.398;2022-10-31T16:31:37;24.37;;;19.57;;
50126;SDS011;36024;47.974;16.398;2022-10-31T16:34:10;27.27;;;21.97;;
50126;SDS011;36024;47.974;16.398;2022-10-31T16:36:52;22.80;;;18.63;;
50126;SDS011;36024;47.974;16.398;2022-10-31T16:39:19;23.97;;;19.90;;
50126;SDS011;36024;47.974;16.398;2022-10-31T16:41:46;21.93;;;18.30;;
50126;SDS011;36024;47.974;16.398;2022-10-31T16:44:17;25.80;;;20.00;;
50126;SDS011;36024;47.974;16.398;2022-10-31T16:46:46;23.43;;;18.70;;
50126;SDS011;36024;47.974;16.398;2022-10-31T16:49:12;28.83;;;24.67;;
50126;SDS011;36024;47.974;16.398;2022-10-31T16:51:41;28.77;;;25.77;;
50126;SDS011;36024;47.974;16.398;2022-10-31T16:54:08;26.27;;;20.77;;
50126;SDS011;36024;47.974;16.398;2022-10-31T16:56:37;22.53;;;19.13;;
50126;SDS011;36024;47.974;16.398;2022-10-31T16:59:05;20.83;;;18.20;;
50126;SDS011;36024;47.974;16.398;2022-10-31T17:01:40;22.80;;;18.03;;
50126;SDS011;36024;47.974;16.398;2022-10-31T17:04:11;20.77;;;17.60;;
50126;SDS011;36024;47.974;16.398;2022-10-31T17:06:39;22.30;;;18.73;;
50126;SDS011;36024;47.974;16.398;2022-10-31T17:09:07;24.47;;;20.10;;
50126;SDS011;36024;47.974;16.398;2022-10-31T17:11:34;21.57;;;18.93;;
50126;SDS011;36024;47.974;16.398;2022-10-31T17:14:00;24.77;;;19.33;;
50126;SDS011;36024;47.974;16.398;2022-10-31T17:16:27;22.27;;;18.20;;
50126;SDS011;36024;47.974;16.398;2022-10-31T17:18:54;22.57;;;19.20;;
50126;SDS011;36024;47.974;16.398;2022-10-31T17:21:21;25.53;;;19.40;;
50126;SDS011;36024;47.974;16.398;2022-10-31T17:23:49;19.93;;;16.83;;
50126;SDS011;36024;47.974;16.398;2022-10-31T17:26:16;20.40;;;17.33;;
50126;SDS011;36024;47.974;16.398;2022-10-31T17:28:43;24.47;;;19.00;;
50126;SDS011;36024;47.974;16.398;2022-10-31T17:31:23;21.30;;;17.50;;